createdAt,value
2023-05-20T00:00:58.597Z,15.41
2023-05-20T00:03:26.827Z,15.43
2023-05-20T00:05:54.984Z,15.46
2023-05-20T00:08:23.137Z,15.50
2023-05-20T00:10:51.303Z,15.55
2023-05-20T00:13:20.719Z,15.56
2023-05-20T00:15:48.979Z,15.49
2023-05-20T00:18:17.010Z,15.37
2023-05-20T00:20:45.069Z,15.37
2023-05-20T00:23:13.174Z,15.31
2023-05-20T00:25:41.306Z,15.41
2023-05-20T00:28:09.407Z,15.39
2023-05-20T00:30:41.007Z,15.46
2023-05-20T00:33:09.225Z,15.40
2023-05-20T00:35:37.252Z,15.39
2023-05-20T00:38:05.281Z,15.41
2023-05-20T00:40:33.483Z,15.36
2023-05-20T00:43:01.591Z,15.36
2023-05-20T00:45:30.279Z,15.17
2023-05-20T00:48:01.763Z,15.33
2023-05-20T00:50:30.210Z,15.20
2023-05-20T00:52:58.906Z,15.20
2023-05-20T00:55:27.338Z,15.29
2023-05-20T00:57:56.272Z,15.19
2023-05-20T01:00:24.548Z,15.09
2023-05-20T01:02:52.823Z,15.17
2023-05-20T01:05:22.451Z,15.13
2023-05-20T01:07:50.737Z,15.15
2023-05-20T01:10:18.946Z,15.01
2023-05-20T01:12:51.671Z,15.03
2023-05-20T01:15:22.078Z,15.12
2023-05-20T01:17:54.491Z,15.14
2023-05-20T01:20:24.226Z,15.08
2023-05-20T01:22:57.031Z,15.19
2023-05-20T01:25:26.554Z,15.15
2023-05-20T01:27:57.850Z,15.01
2023-05-20T01:30:30.947Z,15.07
2023-05-20T01:33:03.310Z,15.14
2023-05-20T01:35:32.281Z,15.11
2023-05-20T01:38:04.399Z,15.03
2023-05-20T01:40:34.143Z,15.07
2023-05-20T01:43:04.091Z,14.96
2023-05-20T01:45:32.681Z,14.92
2023-05-20T01:48:01.894Z,14.81
2023-05-20T01:50:30.021Z,14.99
2023-05-20T01:52:58.171Z,14.92
2023-05-20T01:55:27.654Z,14.98
2023-05-20T01:57:56.028Z,15.07
2023-05-20T02:00:24.421Z,15.01
2023-05-20T02:02:52.607Z,15.06
2023-05-20T02:05:20.891Z,15.07
2023-05-20T02:07:49.095Z,15.14
2023-05-20T02:10:17.310Z,15.11
2023-05-20T02:12:47.975Z,15.03
2023-05-20T02:15:16.493Z,15.03
2023-05-20T02:17:44.713Z,15.07
2023-05-20T02:20:13.995Z,15.10
2023-05-20T02:22:42.131Z,15.06
2023-05-20T02:25:12.050Z,15.13
2023-05-20T02:27:40.794Z,15.05
2023-05-20T02:30:11.625Z,15.01
2023-05-20T02:32:39.776Z,14.95
2023-05-20T02:35:08.501Z,14.95
2023-05-20T02:37:39.033Z,14.90
2023-05-20T02:40:10.505Z,14.94
2023-05-20T02:42:40.349Z,14.90
2023-05-20T02:45:11.090Z,15.01
2023-05-20T02:47:40.059Z,15.07
2023-05-20T02:50:08.990Z,14.88
2023-05-20T02:52:38.048Z,15.11
2023-05-20T02:55:07.744Z,15.16
2023-05-20T02:57:38.349Z,15.10
2023-05-20T03:00:12.118Z,15.21
2023-05-20T03:02:40.706Z,15.14
2023-05-20T03:05:10.974Z,15.11
2023-05-20T03:07:39.333Z,15.13
2023-05-20T03:10:09.452Z,15.26
2023-05-20T03:12:40.156Z,15.06
2023-05-20T03:15:12.709Z,15.12
2023-05-20T03:17:40.989Z,15.18
2023-05-20T03:20:10.872Z,15.18
2023-05-20T03:22:38.962Z,15.26
2023-05-20T03:25:07.850Z,15.28
2023-05-20T03:27:37.033Z,15.28
2023-05-20T03:30:06.057Z,15.33
2023-05-20T03:32:35.710Z,15.22
2023-05-20T03:35:03.826Z,15.27
2023-05-20T03:37:31.937Z,15.26
2023-05-20T03:40:00.134Z,15.36
2023-05-20T03:42:28.194Z,15.27
2023-05-20T03:44:56.502Z,15.32
2023-05-20T03:47:26.818Z,15.24
2023-05-20T03:49:56.513Z,15.28
2023-05-20T03:52:24.951Z,15.16
2023-05-20T03:54:53.066Z,15.40
2023-05-20T03:57:21.159Z,15.32
2023-05-20T03:59:49.359Z,15.27
2023-05-20T04:02:17.565Z,15.31
2023-05-20T04:04:45.783Z,15.43
2023-05-20T04:07:16.000Z,15.30
2023-05-20T04:09:44.886Z,15.36
2023-05-20T04:12:14.050Z,15.43
2023-05-20T04:14:43.010Z,15.31
2023-05-20T04:17:11.242Z,15.26
2023-05-20T04:19:39.485Z,15.36
2023-05-20T04:22:07.713Z,15.59
2023-05-20T04:24:38.214Z,15.67
2023-05-20T04:27:07.106Z,15.58
2023-05-20T04:29:35.367Z,15.61
2023-05-20T04:32:04.426Z,15.75
2023-05-20T04:34:35.256Z,15.79
2023-05-20T04:37:03.850Z,15.87
2023-05-20T04:39:31.887Z,15.82
2023-05-20T04:42:02.995Z,15.69
2023-05-20T04:44:31.344Z,15.87
2023-05-20T04:46:59.649Z,15.88
2023-05-20T04:49:29.296Z,15.87
2023-05-20T04:51:57.347Z,15.95
2023-05-20T04:54:25.688Z,15.98
2023-05-20T04:56:53.797Z,16.27
2023-05-20T04:59:23.352Z,16.25
2023-05-20T05:01:52.055Z,16.46
2023-05-20T05:04:20.263Z,16.47
2023-05-20T05:06:49.481Z,16.30
2023-05-20T05:09:17.867Z,16.43
2023-05-20T05:11:46.496Z,16.42
2023-05-20T05:14:14.541Z,16.52
2023-05-20T05:16:44.110Z,16.75
2023-05-20T05:19:13.660Z,16.88
2023-05-20T05:21:42.191Z,16.71
2023-05-20T05:24:11.049Z,16.85
2023-05-20T05:26:39.284Z,16.90
2023-05-20T05:29:08.106Z,17.04
2023-05-20T05:31:37.445Z,16.89
2023-05-20T05:34:06.850Z,16.86
2023-05-20T05:36:35.312Z,16.95
2023-05-20T05:39:03.508Z,17.00
2023-05-20T05:41:32.237Z,16.92
2023-05-20T05:44:00.982Z,16.77
2023-05-20T05:46:29.891Z,17.10
2023-05-20T05:48:59.052Z,17.04
2023-05-20T05:51:29.293Z,16.95
2023-05-20T05:53:58.642Z,17.00
2023-05-20T05:56:26.689Z,17.30
2023-05-20T05:58:54.961Z,17.37
2023-05-20T06:01:23.175Z,17.59
2023-05-20T06:03:51.441Z,17.52
2023-05-20T06:06:20.649Z,17.13
2023-05-20T06:08:51.014Z,17.08
2023-05-20T06:11:19.256Z,17.09
2023-05-20T06:13:47.373Z,17.38
2023-05-20T06:16:15.705Z,17.73
2023-05-20T06:18:44.128Z,17.90
2023-05-20T06:21:12.339Z,17.92
2023-05-20T06:23:41.128Z,18.17
2023-05-20T06:26:13.488Z,17.81
2023-05-20T06:28:41.860Z,18.03
2023-05-20T06:31:10.127Z,17.88
2023-05-20T06:33:38.521Z,17.50
2023-05-20T06:36:13.252Z,17.69
2023-05-20T06:38:41.985Z,17.70
2023-05-20T06:41:10.174Z,17.81
2023-05-20T06:43:40.631Z,18.08
2023-05-20T06:46:22.894Z,18.18
2023-05-20T06:49:02.615Z,18.04
2023-05-20T06:51:31.333Z,17.68
2023-05-20T06:54:00.300Z,17.63
2023-05-20T06:56:28.506Z,17.63
2023-05-20T06:58:57.968Z,17.62
2023-05-20T07:01:27.493Z,17.63
2023-05-20T07:03:56.938Z,17.60
2023-05-20T07:06:25.746Z,17.76
2023-05-20T07:08:54.966Z,17.78
2023-05-20T07:11:23.531Z,17.66
2023-05-20T07:13:51.722Z,17.86
2023-05-20T07:16:21.360Z,17.98
2023-05-20T07:18:54.757Z,17.92
2023-05-20T07:21:22.792Z,17.91
2023-05-20T07:24:23.389Z,18.19
2023-05-20T07:26:51.554Z,18.40
2023-05-20T07:29:19.773Z,18.47
2023-05-20T07:31:49.576Z,18.46
2023-05-20T07:34:18.265Z,18.87
2023-05-20T07:36:47.188Z,18.77
2023-05-20T07:39:16.505Z,18.95
2023-05-20T07:41:45.461Z,18.76
2023-05-20T07:44:14.554Z,18.79
2023-05-20T07:46:46.265Z,19.24
2023-05-20T07:49:15.807Z,19.49
2023-05-20T07:51:44.477Z,19.50
2023-05-20T07:54:13.035Z,19.57
2023-05-20T07:56:41.225Z,19.53
2023-05-20T07:59:11.356Z,19.35
2023-05-20T08:01:43.929Z,19.61
2023-05-20T08:04:13.639Z,19.59
2023-05-20T08:06:44.580Z,19.63
2023-05-20T08:09:18.061Z,19.67
2023-05-20T08:11:50.894Z,19.58
2023-05-20T08:14:19.100Z,19.36
2023-05-20T08:16:53.858Z,19.57
2023-05-20T08:19:22.946Z,19.61
2023-05-20T08:21:52.588Z,19.48
2023-05-20T08:24:20.683Z,19.86
2023-05-20T08:26:49.592Z,19.62
2023-05-20T08:29:19.457Z,19.67
2023-05-20T08:31:47.676Z,19.37
2023-05-20T08:34:17.303Z,19.55
2023-05-20T08:36:46.220Z,19.76
2023-05-20T08:39:16.630Z,19.49
2023-05-20T08:41:48.812Z,19.30
2023-05-20T08:44:20.570Z,19.04
2023-05-20T08:46:50.212Z,19.67
2023-05-20T08:49:20.606Z,19.66
2023-05-20T08:51:49.448Z,19.66
2023-05-20T08:54:21.036Z,19.56
2023-05-20T08:56:49.637Z,19.81
2023-05-20T08:59:19.236Z,19.85
2023-05-20T09:01:47.329Z,19.63
2023-05-20T09:04:15.572Z,20.02
2023-05-20T09:06:44.911Z,19.65
2023-05-20T09:09:13.487Z,20.11
2023-05-20T09:11:43.442Z,20.31
2023-05-20T09:14:11.697Z,20.27
2023-05-20T09:16:41.610Z,20.50
2023-05-20T09:19:09.987Z,20.71
2023-05-20T09:21:39.094Z,20.27
2023-05-20T09:24:07.837Z,20.75
2023-05-20T09:26:36.211Z,20.92
2023-05-20T09:29:06.297Z,20.62
2023-05-20T09:31:35.778Z,20.82
2023-05-20T09:34:04.778Z,20.99
2023-05-20T09:36:36.162Z,20.80
2023-05-20T09:39:05.804Z,20.58
2023-05-20T09:41:39.555Z,20.84
2023-05-20T09:44:09.380Z,21.08
2023-05-20T09:46:39.316Z,21.03
2023-05-20T09:49:07.895Z,21.18
2023-05-20T09:51:37.054Z,21.21
2023-05-20T09:54:08.487Z,21.61
2023-05-20T09:56:38.016Z,21.45
2023-05-20T09:59:09.142Z,21.56
2023-05-20T10:01:37.371Z,21.24
2023-05-20T10:04:08.223Z,21.49
2023-05-20T10:06:52.044Z,21.81
2023-05-20T10:09:33.533Z,21.97
2023-05-20T10:12:13.707Z,21.87
2023-05-20T10:14:52.267Z,21.57
2023-05-20T10:17:26.625Z,21.86
2023-05-20T10:19:59.699Z,21.59
2023-05-20T10:22:29.597Z,22.04
2023-05-20T10:25:01.329Z,21.95
2023-05-20T10:27:29.443Z,22.19
2023-05-20T10:29:59.078Z,22.36
2023-05-20T10:32:29.219Z,22.35
2023-05-20T10:35:00.874Z,21.77
2023-05-20T10:37:30.542Z,22.21
2023-05-20T10:40:09.378Z,22.70
2023-05-20T10:42:37.515Z,23.11
2023-05-20T10:45:08.655Z,23.27
2023-05-20T10:47:37.730Z,22.67
2023-05-20T10:50:07.793Z,22.62
2023-05-20T10:52:38.028Z,22.23
2023-05-20T10:55:07.676Z,22.28
2023-05-20T10:57:35.797Z,22.04
2023-05-20T11:00:10.875Z,21.78
2023-05-20T11:02:39.540Z,22.47
2023-05-20T11:05:12.133Z,23.24
2023-05-20T11:07:40.210Z,23.79
2023-05-20T11:10:10.380Z,22.98
2023-05-20T11:12:38.507Z,22.46
2023-05-20T11:15:09.346Z,22.89
2023-05-20T11:17:37.476Z,22.44
2023-05-20T11:20:06.345Z,22.44
2023-05-20T11:22:34.402Z,22.97
2023-05-20T11:25:07.366Z,22.76
2023-05-20T11:27:35.546Z,22.72
2023-05-20T11:30:04.137Z,22.67
2023-05-20T11:32:33.662Z,22.78
2023-05-20T11:35:01.825Z,23.59
2023-05-20T11:37:30.502Z,23.90
2023-05-20T11:40:09.533Z,23.96
2023-05-20T11:42:38.114Z,23.56
2023-05-20T11:45:07.212Z,24.05
2023-05-20T11:47:36.820Z,24.28
2023-05-20T11:50:05.155Z,25.11
2023-05-20T11:52:35.176Z,25.18
2023-05-20T11:55:03.223Z,25.00
2023-05-20T11:57:32.686Z,24.81
2023-05-20T12:00:00.786Z,24.47
2023-05-20T12:02:28.985Z,24.73
2023-05-20T12:04:58.651Z,25.25
2023-05-20T12:07:26.949Z,26.20
2023-05-20T12:09:55.044Z,25.80
2023-05-20T12:12:24.355Z,25.68
2023-05-20T12:14:52.638Z,26.24
2023-05-20T12:17:20.752Z,26.90
2023-05-20T12:19:48.920Z,26.53
2023-05-20T12:22:18.463Z,27.21
2023-05-20T12:24:46.542Z,27.53
2023-05-20T12:27:15.041Z,26.78
2023-05-20T12:29:43.202Z,27.51
2023-05-20T12:32:11.376Z,28.06
2023-05-20T12:34:39.437Z,27.89
2023-05-20T12:37:07.681Z,28.35
2023-05-20T12:39:37.362Z,28.94
2023-05-20T12:42:05.513Z,29.07
2023-05-20T12:44:33.676Z,29.29
2023-05-20T12:47:01.805Z,30.03
2023-05-20T12:49:30.303Z,29.45
2023-05-20T12:51:59.895Z,29.48
2023-05-20T12:54:29.578Z,30.41
2023-05-20T12:56:59.584Z,30.50
2023-05-20T12:59:27.613Z,29.44
2023-05-20T13:01:55.768Z,28.81
2023-05-20T13:04:24.793Z,29.54
2023-05-20T13:06:52.957Z,29.95
2023-05-20T13:09:21.152Z,29.93
2023-05-20T13:11:49.277Z,30.48
2023-05-20T13:14:18.686Z,30.91
2023-05-20T13:16:46.974Z,30.58
2023-05-20T13:19:15.088Z,29.94
2023-05-20T13:21:43.180Z,30.56
2023-05-20T13:24:11.260Z,30.49
2023-05-20T13:26:39.828Z,30.70
2023-05-20T13:29:08.005Z,29.99
2023-05-20T13:31:37.573Z,29.68
2023-05-20T13:34:05.924Z,29.68
2023-05-20T13:36:34.467Z,29.98
2023-05-20T13:39:02.548Z,30.20
2023-05-20T13:41:30.858Z,30.18
2023-05-20T13:43:58.918Z,29.86
2023-05-20T13:46:27.067Z,30.05
2023-05-20T13:48:56.542Z,29.48
2023-05-20T13:51:24.590Z,29.67
2023-05-20T13:53:52.686Z,29.92
2023-05-20T13:56:21.232Z,30.66
2023-05-20T13:58:49.409Z,30.33
2023-05-20T14:01:18.317Z,30.74
2023-05-20T14:03:47.037Z,30.62
2023-05-20T14:06:18.941Z,30.56
2023-05-20T14:08:47.320Z,30.78
2023-05-20T14:11:15.392Z,30.01
2023-05-20T14:13:44.535Z,29.96
2023-05-20T14:16:12.640Z,30.12
2023-05-20T14:18:41.393Z,30.23
2023-05-20T14:21:09.448Z,30.00
2023-05-20T14:23:38.897Z,30.01
2023-05-20T14:26:07.062Z,30.07
2023-05-20T14:28:35.126Z,30.38
2023-05-20T14:31:03.216Z,30.27
2023-05-20T14:33:31.406Z,30.18
2023-05-20T14:35:59.410Z,30.28
2023-05-20T14:38:27.881Z,29.75
2023-05-20T14:40:57.558Z,29.68
2023-05-20T14:43:25.959Z,30.04
2023-05-20T14:45:54.181Z,30.79
2023-05-20T14:48:22.277Z,31.27
2023-05-20T14:50:50.580Z,31.10
2023-05-20T14:53:19.446Z,31.57
2023-05-20T14:55:47.852Z,31.47
2023-05-20T14:58:17.287Z,31.80
2023-05-20T15:00:45.642Z,31.02
2023-05-20T15:03:13.886Z,30.87
2023-05-20T15:05:42.602Z,30.77
2023-05-20T15:08:10.894Z,31.52
2023-05-20T15:10:39.193Z,32.16
2023-05-20T15:13:07.557Z,31.44
2023-05-20T15:15:36.987Z,31.22
2023-05-20T15:18:05.319Z,31.91
2023-05-20T15:20:33.486Z,31.84
2023-05-20T15:23:01.622Z,31.20
2023-05-20T15:25:29.744Z,30.67
2023-05-20T15:27:57.910Z,31.09
2023-05-20T15:30:26.615Z,30.87
2023-05-20T15:32:56.211Z,30.81
2023-05-20T15:35:24.493Z,31.58
2023-05-20T15:37:53.190Z,32.13
2023-05-20T15:40:21.918Z,32.01
2023-05-20T15:42:50.349Z,32.24
2023-05-20T15:45:18.574Z,31.44
2023-05-20T15:47:46.791Z,31.93
2023-05-20T15:50:16.391Z,31.53
2023-05-20T15:52:44.543Z,31.59
2023-05-20T15:55:12.854Z,31.76
2023-05-20T15:57:41.293Z,31.74
2023-05-20T16:00:10.680Z,31.67
2023-05-20T16:02:40.340Z,31.35
2023-05-20T16:05:09.316Z,31.71
2023-05-20T16:07:39.199Z,31.33
2023-05-20T16:10:09.989Z,31.17
2023-05-20T16:12:38.168Z,32.01
2023-05-20T16:15:07.127Z,31.79
2023-05-20T16:17:35.253Z,31.67
2023-05-20T16:20:06.903Z,31.68
2023-05-20T16:22:35.725Z,31.14
2023-05-20T16:25:05.634Z,30.62
2023-05-20T16:27:33.770Z,30.62
2023-05-20T16:30:01.891Z,30.78
2023-05-20T16:32:30.017Z,30.88
2023-05-20T16:34:58.630Z,30.46
2023-05-20T16:37:26.847Z,30.95
2023-05-20T16:39:55.130Z,31.17
2023-05-20T16:42:24.524Z,31.07
2023-05-20T16:44:53.395Z,30.96
2023-05-20T16:47:21.618Z,30.39
2023-05-20T16:49:49.691Z,30.48
2023-05-20T16:52:18.117Z,30.85
2023-05-20T16:54:46.420Z,30.13
2023-05-20T16:57:16.018Z,30.29
2023-05-20T16:59:45.468Z,30.29
2023-05-20T17:02:13.485Z,30.18
2023-05-20T17:04:41.671Z,30.31
2023-05-20T17:07:11.430Z,30.29
2023-05-20T17:09:39.491Z,29.49
2023-05-20T17:12:08.376Z,29.82
2023-05-20T17:14:37.125Z,29.84
2023-05-20T17:17:06.775Z,29.68
2023-05-20T17:19:34.938Z,29.70
2023-05-20T17:22:03.101Z,29.86
2023-05-20T17:24:31.156Z,29.36
2023-05-20T17:26:59.194Z,29.29
2023-05-20T17:29:27.295Z,29.00
2023-05-20T17:31:55.376Z,28.55
2023-05-20T17:34:24.851Z,28.48
2023-05-20T17:36:52.966Z,28.17
2023-05-20T17:39:21.046Z,28.28
2023-05-20T17:41:49.033Z,28.06
2023-05-20T17:44:17.202Z,27.71
2023-05-20T17:46:45.320Z,27.60
2023-05-20T17:49:13.442Z,26.57
2023-05-20T17:51:43.077Z,26.58
2023-05-20T17:54:11.186Z,26.71
2023-05-20T17:56:39.329Z,26.32
2023-05-20T17:59:07.476Z,26.21
2023-05-20T18:01:37.540Z,25.94
2023-05-20T18:04:06.459Z,25.59
2023-05-20T18:06:35.428Z,25.52
2023-05-20T18:09:06.039Z,25.50
2023-05-20T18:11:35.178Z,25.20
2023-05-20T18:14:03.845Z,24.95
2023-05-20T18:16:32.197Z,24.91
2023-05-20T18:19:00.403Z,24.84
2023-05-20T18:21:28.745Z,24.68
2023-05-20T18:23:56.777Z,24.49
2023-05-20T18:26:26.545Z,24.44
2023-05-20T18:28:54.678Z,24.06
2023-05-20T18:31:22.764Z,24.02
2023-05-20T18:33:50.913Z,23.89
2023-05-20T18:36:19.282Z,23.72
2023-05-20T18:38:47.324Z,23.38
2023-05-20T18:41:15.349Z,23.49
2023-05-20T18:43:44.860Z,23.32
2023-05-20T18:46:13.355Z,23.09
2023-05-20T18:48:41.445Z,22.90
2023-05-20T18:51:09.580Z,22.86
2023-05-20T18:53:37.653Z,22.84
2023-05-20T18:56:06.387Z,22.50
2023-05-20T18:58:34.485Z,22.32
2023-05-20T19:01:04.026Z,22.26
2023-05-20T19:03:32.550Z,22.25
2023-05-20T19:06:01.044Z,22.15
2023-05-20T19:08:29.376Z,22.02
2023-05-20T19:10:57.434Z,21.85
2023-05-20T19:13:25.586Z,21.84
2023-05-20T19:15:53.649Z,22.03
2023-05-20T19:18:23.043Z,21.88
2023-05-20T19:20:52.506Z,21.52
2023-05-20T19:23:20.712Z,21.77
2023-05-20T19:25:48.715Z,21.68
2023-05-20T19:28:16.860Z,21.50
2023-05-20T19:30:44.941Z,21.73
2023-05-20T19:33:13.083Z,21.53
2023-05-20T19:35:42.665Z,21.68
2023-05-20T19:38:10.997Z,21.68
2023-05-20T19:40:39.379Z,21.75
2023-05-20T19:43:07.854Z,21.72
2023-05-20T19:45:36.829Z,21.55
2023-05-20T19:48:05.560Z,21.64
2023-05-20T19:50:34.274Z,21.40
2023-05-20T19:53:06.536Z,21.52
2023-05-20T19:55:35.770Z,21.28
2023-05-20T19:58:04.228Z,20.92
2023-05-20T20:00:32.380Z,21.14
2023-05-20T20:03:03.322Z,21.21
2023-05-20T20:05:31.569Z,21.17
2023-05-20T20:07:59.670Z,21.09
2023-05-20T20:10:30.665Z,21.06
2023-05-20T20:12:58.716Z,20.90
2023-05-20T20:15:27.239Z,20.92
2023-05-20T20:17:55.345Z,21.04
2023-05-20T20:20:27.795Z,21.00
2023-05-20T20:22:56.572Z,20.96
2023-05-20T20:25:26.768Z,20.92
2023-05-20T20:27:56.632Z,20.84
2023-05-20T20:30:24.751Z,20.77
2023-05-20T20:32:53.582Z,20.79
2023-05-20T20:35:22.729Z,20.64
2023-05-20T20:37:54.392Z,20.73
2023-05-20T20:40:22.684Z,20.63
2023-05-20T20:42:50.738Z,20.50
2023-05-20T20:45:22.858Z,20.59
2023-05-20T20:47:51.660Z,20.61
2023-05-20T20:50:19.818Z,20.38
2023-05-20T20:52:47.997Z,20.50
2023-05-20T20:55:16.165Z,20.36
2023-05-20T20:57:44.831Z,20.45
2023-05-20T21:00:17.523Z,20.34
2023-05-20T21:02:46.991Z,20.40
2023-05-20T21:05:16.929Z,20.42
2023-05-20T21:07:46.610Z,20.18
2023-05-20T21:10:14.688Z,20.36
2023-05-20T21:12:42.714Z,20.34
2023-05-20T21:15:12.637Z,19.98
2023-05-20T21:17:40.927Z,19.93
2023-05-20T21:20:12.162Z,20.19
2023-05-20T21:22:40.419Z,20.25
2023-05-20T21:25:09.756Z,20.27
2023-05-20T21:27:37.908Z,20.24
2023-05-20T21:30:06.829Z,20.15
2023-05-20T21:32:34.919Z,20.02
2023-05-20T21:35:02.994Z,20.07
2023-05-20T21:37:32.449Z,20.05
2023-05-20T21:40:00.546Z,20.02
2023-05-20T21:42:28.984Z,20.02
2023-05-20T21:44:57.068Z,19.98
2023-05-20T21:47:25.207Z,19.93
2023-05-20T21:49:53.274Z,19.78
2023-05-20T21:52:21.269Z,19.86
2023-05-20T21:54:50.760Z,19.83
2023-05-20T21:57:18.807Z,19.69
2023-05-20T21:59:47.668Z,19.63
2023-05-20T22:02:16.078Z,19.46
2023-05-20T22:04:44.045Z,19.41
2023-05-20T22:07:12.139Z,19.31
2023-05-20T22:09:40.226Z,19.51
2023-05-20T22:12:11.196Z,19.36
2023-05-20T22:14:39.257Z,19.48
2023-05-20T22:17:07.382Z,19.43
2023-05-20T22:19:35.421Z,19.48
2023-05-20T22:22:03.619Z,19.44
2023-05-20T22:24:31.749Z,19.43
2023-05-20T22:27:00.119Z,19.44
2023-05-20T22:29:31.613Z,19.36
2023-05-20T22:31:59.958Z,19.18
2023-05-20T22:34:28.137Z,19.17
2023-05-20T22:36:56.826Z,19.27
2023-05-20T22:39:25.495Z,19.30
2023-05-20T22:41:53.589Z,19.09
2023-05-20T22:44:21.720Z,19.28
2023-05-20T22:46:51.369Z,19.39
2023-05-20T22:49:19.996Z,19.42
2023-05-20T22:51:48.646Z,19.47
2023-05-20T22:54:17.524Z,19.39
2023-05-20T22:56:45.745Z,19.45
2023-05-20T22:59:13.807Z,19.47
2023-05-20T23:01:42.452Z,19.43
2023-05-20T23:04:11.949Z,19.43
2023-05-20T23:06:39.962Z,19.36
2023-05-20T23:09:08.202Z,19.15
2023-05-20T23:11:36.327Z,19.36
2023-05-20T23:14:04.409Z,19.41
2023-05-20T23:16:32.563Z,19.28
2023-05-20T23:19:00.738Z,19.19
2023-05-20T23:21:30.209Z,19.23
2023-05-20T23:23:58.348Z,19.37
2023-05-20T23:26:28.874Z,19.30
2023-05-20T23:28:56.966Z,19.15
2023-05-20T23:31:26.979Z,19.21
2023-05-20T23:33:58.019Z,19.25
2023-05-20T23:36:26.793Z,19.33
2023-05-20T23:38:56.618Z,19.61
2023-05-20T23:41:24.668Z,19.48
2023-05-20T23:43:52.911Z,19.55
2023-05-20T23:46:20.941Z,19.61
2023-05-20T23:48:49.989Z,19.66
2023-05-20T23:51:18.290Z,19.57
2023-05-20T23:53:46.462Z,19.59
2023-05-20T23:56:15.913Z,19.60
2023-05-20T23:58:43.978Z,19.55
